createdAt,value
2019-05-05T00:00:40.281Z,4.10
2019-05-05T00:03:14.736Z,4.10
2019-05-05T00:05:44.471Z,4.10
2019-05-05T00:08:12.757Z,4.20
2019-05-05T00:10:58.684Z,4.20
2019-05-05T00:13:28.524Z,4.10
2019-05-05T00:15:58.389Z,4.20
2019-05-05T00:18:28.054Z,4.10
2019-05-05T00:20:56.244Z,4.20
2019-05-05T00:23:25.072Z,4.20
2019-05-05T00:25:55.271Z,4.10
2019-05-05T00:28:24.882Z,4.10
2019-05-05T00:30:55.249Z,4.10
2019-05-05T00:33:24.879Z,4.00
2019-05-05T00:35:54.533Z,4.10
2019-05-05T00:38:24.741Z,4.10
2019-05-05T00:40:54.823Z,4.00
2019-05-05T00:43:22.643Z,4.00
2019-05-05T00:45:52.476Z,4.00
2019-05-05T00:48:40.400Z,4.00
2019-05-05T00:51:08.593Z,4.00
2019-05-05T00:53:36.807Z,3.90
2019-05-05T00:56:05.249Z,4.00
2019-05-05T00:58:35.342Z,4.00
2019-05-05T01:01:14.468Z,4.10
2019-05-05T01:03:44.173Z,4.00
2019-05-05T01:06:17.072Z,4.10
2019-05-05T01:08:45.276Z,4.10
2019-05-05T01:11:14.935Z,4.00
2019-05-05T01:13:45.348Z,4.10
2019-05-05T01:16:15.126Z,4.10
2019-05-05T01:18:44.908Z,4.10
2019-05-05T01:21:14.902Z,4.00
2019-05-05T01:23:42.875Z,4.00
2019-05-05T01:26:11.052Z,3.90
2019-05-05T01:28:39.290Z,4.00
2019-05-05T01:31:09.121Z,4.00
2019-05-05T01:33:38.960Z,4.00
2019-05-05T01:36:07.198Z,4.00
2019-05-05T01:38:39.720Z,4.00
2019-05-05T01:41:09.594Z,4.00
2019-05-05T01:43:37.826Z,4.00
2019-05-05T01:46:06.020Z,3.80
2019-05-05T01:48:35.065Z,3.90
2019-05-05T01:51:05.040Z,3.90
2019-05-05T01:53:35.003Z,3.90
2019-05-05T01:56:04.862Z,3.90
2019-05-05T01:58:34.902Z,3.90
2019-05-05T02:01:05.012Z,4.00
2019-05-05T02:03:35.018Z,4.00
2019-05-05T02:06:05.094Z,4.10
2019-05-05T02:08:34.971Z,4.10
2019-05-05T02:11:05.173Z,4.10
2019-05-05T02:13:34.679Z,4.00
2019-05-05T02:16:04.599Z,4.00
2019-05-05T02:18:34.606Z,4.00
2019-05-05T02:21:06.918Z,4.00
2019-05-05T02:23:35.409Z,4.00
2019-05-05T02:26:04.683Z,4.10
2019-05-05T02:28:36.931Z,4.00
2019-05-05T02:31:16.725Z,4.10
2019-05-05T02:33:45.995Z,4.00
2019-05-05T02:36:15.932Z,4.10
2019-05-05T02:38:46.238Z,4.10
2019-05-05T02:41:15.433Z,4.10
2019-05-05T02:43:44.955Z,4.10
2019-05-05T02:46:30.962Z,4.10
2019-05-05T02:48:59.161Z,4.20
2019-05-05T02:51:27.377Z,4.20
2019-05-05T02:53:55.749Z,4.20
2019-05-05T02:56:26.420Z,4.10
2019-05-05T02:58:56.429Z,4.10
2019-05-05T03:01:44.668Z,4.10
2019-05-05T03:04:14.095Z,4.10
2019-05-05T03:06:45.333Z,4.10
2019-05-05T03:09:13.860Z,4.20
2019-05-05T03:11:43.669Z,4.10
2019-05-05T03:14:11.942Z,4.10
2019-05-05T03:16:40.140Z,4.10
2019-05-05T03:19:08.904Z,4.20
2019-05-05T03:21:37.176Z,4.20
2019-05-05T03:24:05.440Z,4.20
2019-05-05T03:26:34.053Z,4.20
2019-05-05T03:29:04.799Z,4.20
2019-05-05T03:31:35.175Z,4.10
2019-05-05T03:34:05.988Z,4.10
2019-05-05T03:36:33.939Z,4.10
2019-05-05T03:39:02.505Z,4.10
2019-05-05T03:41:34.342Z,4.20
2019-05-05T03:44:06.623Z,4.20
2019-05-05T03:46:35.392Z,4.20
2019-05-05T03:49:04.803Z,4.30
2019-05-05T03:51:34.508Z,4.20
2019-05-05T03:54:04.375Z,4.20
2019-05-05T03:56:34.636Z,4.30
2019-05-05T03:59:04.699Z,4.20
2019-05-05T04:01:44.015Z,4.30
2019-05-05T04:04:29.953Z,4.30
2019-05-05T04:06:58.616Z,4.30
2019-05-05T04:09:26.808Z,4.40
2019-05-05T04:11:55.110Z,4.40
2019-05-05T04:14:25.040Z,4.40
2019-05-05T04:16:54.859Z,4.40
2019-05-05T04:19:30.438Z,4.40
2019-05-05T04:21:58.691Z,4.30
2019-05-05T04:24:26.915Z,4.40
2019-05-05T04:26:55.104Z,4.40
2019-05-05T04:29:24.417Z,4.50
2019-05-05T04:31:54.038Z,4.40
2019-05-05T04:34:24.084Z,4.40
2019-05-05T04:36:54.495Z,4.40
2019-05-05T04:39:23.662Z,4.40
2019-05-05T04:41:51.962Z,4.40
2019-05-05T04:44:20.164Z,4.50
2019-05-05T04:46:50.000Z,4.60
2019-05-05T04:49:36.242Z,4.50
2019-05-05T04:52:18.215Z,4.50
2019-05-05T04:54:48.048Z,4.50
2019-05-05T04:57:16.244Z,4.40
2019-05-05T04:59:44.654Z,4.40
2019-05-05T05:02:30.487Z,4.40
2019-05-05T05:05:06.308Z,4.40
2019-05-05T05:07:34.581Z,4.40
2019-05-05T05:10:04.531Z,4.50
2019-05-05T05:12:34.190Z,4.60
2019-05-05T05:15:04.325Z,4.50
2019-05-05T05:17:44.332Z,4.50
2019-05-05T05:20:14.145Z,4.50
2019-05-05T05:22:44.002Z,4.50
2019-05-05T05:25:13.619Z,4.60
2019-05-05T05:27:44.156Z,4.60
2019-05-05T05:30:13.713Z,4.60
2019-05-05T05:32:41.873Z,4.60
2019-05-05T05:35:10.071Z,4.70
2019-05-05T05:37:38.264Z,4.80
2019-05-05T05:40:16.905Z,4.80
2019-05-05T05:42:45.128Z,4.80
2019-05-05T05:45:18.029Z,4.80
2019-05-05T05:48:04.172Z,4.80
2019-05-05T05:50:34.070Z,4.80
2019-05-05T05:53:04.479Z,4.90
2019-05-05T05:55:34.164Z,4.90
2019-05-05T05:58:02.138Z,4.90
2019-05-05T06:00:30.708Z,5.00
2019-05-05T06:02:58.939Z,5.10
2019-05-05T06:05:27.135Z,5.10
2019-05-05T06:07:55.336Z,5.00
2019-05-05T06:10:26.632Z,5.10
2019-05-05T06:12:54.679Z,5.20
2019-05-05T06:15:24.434Z,5.20
2019-05-05T06:17:53.973Z,5.20
2019-05-05T06:20:23.837Z,5.20
2019-05-05T06:22:53.539Z,5.20
2019-05-05T06:25:21.903Z,5.10
2019-05-05T06:27:50.092Z,5.10
2019-05-05T06:30:18.292Z,5.20
2019-05-05T06:32:46.526Z,5.10
2019-05-05T06:35:14.720Z,5.20
2019-05-05T06:37:54.764Z,5.20
2019-05-05T06:40:25.329Z,5.20
2019-05-05T06:42:58.095Z,5.20
2019-05-05T06:45:31.009Z,5.30
2019-05-05T06:47:59.204Z,5.30
2019-05-05T06:50:27.401Z,5.20
2019-05-05T06:52:55.634Z,5.20
2019-05-05T06:55:24.537Z,5.30
2019-05-05T06:57:53.930Z,5.20
2019-05-05T07:00:24.074Z,5.20
2019-05-05T07:02:54.050Z,5.30
2019-05-05T07:05:23.519Z,5.20
2019-05-05T07:07:53.651Z,5.20
2019-05-05T07:10:21.761Z,5.20
2019-05-05T07:12:49.960Z,5.30
2019-05-05T07:15:18.194Z,5.40
2019-05-05T07:17:46.392Z,5.40
2019-05-05T07:20:14.861Z,5.40
2019-05-05T07:22:58.322Z,5.40
2019-05-05T07:25:13.769Z,5.50
2019-05-05T07:27:44.094Z,5.60
2019-05-05T07:30:13.700Z,5.50
2019-05-05T07:32:44.177Z,5.50
2019-05-05T07:35:24.570Z,5.50
2019-05-05T07:37:53.844Z,5.50
2019-05-05T07:40:24.067Z,5.40
2019-05-05T07:42:53.969Z,5.40
2019-05-05T07:45:23.550Z,5.40
2019-05-05T07:47:53.936Z,5.50
2019-05-05T07:50:31.216Z,5.70
2019-05-05T07:52:51.750Z,5.70
2019-05-05T07:55:19.956Z,5.70
2019-05-05T07:57:48.157Z,5.80
2019-05-05T08:00:16.385Z,5.80
2019-05-05T08:02:44.581Z,5.80
2019-05-05T08:05:14.124Z,5.80
2019-05-05T08:07:44.497Z,5.80
2019-05-05T08:10:13.646Z,5.90
2019-05-05T08:12:43.605Z,6.00
2019-05-05T08:15:11.994Z,6.00
2019-05-05T08:17:47.827Z,6.10
2019-05-05T08:20:33.871Z,6.20
2019-05-05T08:23:04.144Z,6.20
2019-05-05T08:25:39.830Z,6.30
2019-05-05T08:28:05.316Z,6.30
2019-05-05T08:30:37.825Z,6.30
2019-05-05T08:33:06.058Z,6.30
2019-05-05T08:35:34.525Z,6.30
2019-05-05T08:38:04.578Z,6.50
2019-05-05T08:40:34.569Z,6.60
2019-05-05T08:43:04.554Z,6.60
2019-05-05T08:45:34.714Z,6.50
2019-05-05T08:48:04.674Z,6.50
2019-05-05T08:50:34.610Z,6.50
2019-05-05T08:53:04.282Z,6.50
2019-05-05T08:55:33.958Z,6.60
2019-05-05T08:58:04.386Z,6.60
2019-05-05T09:00:33.777Z,6.80
2019-05-05T09:03:03.847Z,6.80
2019-05-05T09:05:34.144Z,6.90
2019-05-05T09:08:04.317Z,7.00
2019-05-05T09:10:34.130Z,7.10
2019-05-05T09:13:03.741Z,7.20
2019-05-05T09:15:33.710Z,7.30
2019-05-05T09:18:02.075Z,7.40
2019-05-05T09:20:30.294Z,7.40
2019-05-05T09:22:58.543Z,7.40
2019-05-05T09:25:34.175Z,7.40
2019-05-05T09:28:06.110Z,7.30
2019-05-05T09:30:40.007Z,7.30
2019-05-05T09:33:08.208Z,7.30
2019-05-05T09:35:36.438Z,7.40
2019-05-05T09:38:04.633Z,7.40
2019-05-05T09:40:38.112Z,7.50
2019-05-05T09:43:07.189Z,7.60
2019-05-05T09:45:36.017Z,7.70
2019-05-05T09:48:04.364Z,7.60
2019-05-05T09:50:34.152Z,7.80
2019-05-05T09:53:04.163Z,7.90
2019-05-05T09:55:33.581Z,7.90
2019-05-05T09:58:01.978Z,7.90
2019-05-05T10:00:33.603Z,8.10
2019-05-05T10:03:03.702Z,8.30
2019-05-05T10:05:31.818Z,8.40
2019-05-05T10:08:00.008Z,8.20
2019-05-05T10:10:28.224Z,8.10
2019-05-05T10:12:56.429Z,8.10
2019-05-05T10:15:24.624Z,8.20
2019-05-05T10:17:54.185Z,8.20
2019-05-05T10:20:23.663Z,8.20
2019-05-05T10:22:53.793Z,8.30
2019-05-05T10:25:35.640Z,8.20
2019-05-05T10:28:04.423Z,8.20
2019-05-05T10:30:32.909Z,8.30
2019-05-05T10:33:01.076Z,8.30
2019-05-05T10:35:29.276Z,8.40
2019-05-05T10:37:57.474Z,8.50
2019-05-05T10:40:27.309Z,8.60
2019-05-05T10:42:55.499Z,8.50
2019-05-05T10:45:24.491Z,8.60
2019-05-05T10:47:52.918Z,8.70
2019-05-05T10:50:21.349Z,8.80
2019-05-05T10:52:49.572Z,8.70
2019-05-05T10:55:17.760Z,8.70
2019-05-05T10:57:45.947Z,8.80
2019-05-05T11:00:16.026Z,8.80
2019-05-05T11:02:44.216Z,8.90
2019-05-05T11:05:12.419Z,8.90
2019-05-05T11:07:40.647Z,8.80
2019-05-05T11:10:08.843Z,8.90
2019-05-05T11:12:37.036Z,9.00
2019-05-05T11:15:06.768Z,9.00
2019-05-05T11:17:35.002Z,9.10
2019-05-05T11:20:05.562Z,9.30
2019-05-05T11:22:34.669Z,9.60
2019-05-05T11:25:05.049Z,9.70
2019-05-05T11:27:34.518Z,9.80
2019-05-05T11:30:14.422Z,9.80
2019-05-05T11:33:00.244Z,9.80
2019-05-05T11:35:46.345Z,9.80
2019-05-05T11:38:14.540Z,9.60
2019-05-05T11:40:43.972Z,9.50
2019-05-05T11:43:14.076Z,9.40
2019-05-05T11:45:43.823Z,9.20
2019-05-05T11:48:14.621Z,9.20
2019-05-05T11:50:43.678Z,9.30
2019-05-05T11:53:11.981Z,9.20
2019-05-05T11:55:40.185Z,9.00
2019-05-05T11:58:08.380Z,8.80
2019-05-05T12:00:36.584Z,8.90
2019-05-05T12:03:04.948Z,9.00
2019-05-05T12:05:33.706Z,9.10
2019-05-05T12:08:03.795Z,9.20
2019-05-05T12:10:34.497Z,9.10
2019-05-05T12:13:04.322Z,9.20
2019-05-05T12:15:34.125Z,9.30
2019-05-05T12:18:03.832Z,9.30
2019-05-05T12:20:39.159Z,9.20
2019-05-05T12:23:07.455Z,9.00
2019-05-05T12:25:56.934Z,9.20
2019-05-05T12:28:39.998Z,9.40
2019-05-05T12:31:15.804Z,9.40
2019-05-05T12:33:44.263Z,9.60
2019-05-05T12:36:12.455Z,9.70
2019-05-05T12:38:40.653Z,9.70
2019-05-05T12:41:08.853Z,9.40
2019-05-05T12:43:37.043Z,9.50
2019-05-05T12:46:15.742Z,9.90
2019-05-05T12:48:51.556Z,10.20
2019-05-05T12:51:19.794Z,10.30
2019-05-05T12:53:47.988Z,10.40
2019-05-05T12:56:16.260Z,10.40
2019-05-05T12:58:44.461Z,10.30
2019-05-05T13:01:20.286Z,10.00
2019-05-05T13:03:48.480Z,10.00
2019-05-05T13:06:16.761Z,10.00
2019-05-05T13:08:44.959Z,9.90
2019-05-05T13:11:13.263Z,9.70
2019-05-05T13:13:43.801Z,9.80
2019-05-05T13:16:13.486Z,10.10
2019-05-05T13:18:41.350Z,10.30
2019-05-05T13:21:26.305Z,10.40
2019-05-05T13:23:56.136Z,10.30
2019-05-05T13:26:34.846Z,10.30
2019-05-05T13:29:03.078Z,10.30
2019-05-05T13:31:33.579Z,10.40
2019-05-05T13:34:01.192Z,10.40
2019-05-05T13:36:29.427Z,10.30
2019-05-05T13:38:57.615Z,10.20
2019-05-05T13:41:25.828Z,9.90
2019-05-05T13:43:55.581Z,9.50
2019-05-05T13:46:25.420Z,9.30
2019-05-05T13:48:53.981Z,9.10
2019-05-05T13:51:23.989Z,9.10
2019-05-05T13:53:53.969Z,9.10
2019-05-05T13:56:24.371Z,8.80
2019-05-05T13:58:52.438Z,8.70
2019-05-05T14:01:20.666Z,8.70
2019-05-05T14:03:48.855Z,8.60
2019-05-05T14:06:17.052Z,8.60
2019-05-05T14:08:45.260Z,8.80
2019-05-05T14:11:14.238Z,8.80
2019-05-05T14:13:44.737Z,8.80
2019-05-05T14:16:14.308Z,8.70
2019-05-05T14:18:42.430Z,8.10
2019-05-05T14:21:10.624Z,7.70
2019-05-05T14:23:40.465Z,7.60
2019-05-05T14:26:08.660Z,7.70
2019-05-05T14:28:36.898Z,7.80
2019-05-05T14:31:09.680Z,7.80
2019-05-05T14:33:51.696Z,7.90
2019-05-05T14:36:24.508Z,8.10
2019-05-05T14:38:54.462Z,8.00
2019-05-05T14:41:22.660Z,8.10
2019-05-05T14:43:50.855Z,8.30
2019-05-05T14:46:19.086Z,8.60
2019-05-05T14:48:47.276Z,8.80
2019-05-05T14:51:15.467Z,8.90
2019-05-05T14:53:43.796Z,9.00
2019-05-05T14:56:13.557Z,9.10
2019-05-05T14:58:43.693Z,9.30
2019-05-05T15:01:11.729Z,9.30
2019-05-05T15:03:41.724Z,9.50
2019-05-05T15:06:18.011Z,9.60
2019-05-05T15:09:04.414Z,9.40
2019-05-05T15:11:37.213Z,9.20
2019-05-05T15:14:06.970Z,8.90
2019-05-05T15:16:35.314Z,8.80
2019-05-05T15:19:03.968Z,8.80
2019-05-05T15:21:33.938Z,8.80
2019-05-05T15:24:02.284Z,8.90
2019-05-05T15:26:30.477Z,8.90
2019-05-05T15:29:01.706Z,8.80
2019-05-05T15:31:28.626Z,8.40
2019-05-05T15:33:56.820Z,8.00
2019-05-05T15:36:25.008Z,7.80
2019-05-05T15:38:55.048Z,7.50
2019-05-05T15:41:23.660Z,7.40
2019-05-05T15:43:51.900Z,7.40
2019-05-05T15:46:20.103Z,7.50
2019-05-05T15:48:48.338Z,7.60
2019-05-05T15:51:16.528Z,7.70
2019-05-05T15:53:44.727Z,7.90
2019-05-05T15:56:13.893Z,7.90
2019-05-05T15:58:43.547Z,7.90
2019-05-05T16:01:11.856Z,8.00
2019-05-05T16:03:40.082Z,8.00
2019-05-05T16:06:08.271Z,8.00
2019-05-05T16:08:36.470Z,8.00
2019-05-05T16:11:04.664Z,8.00
2019-05-05T16:13:35.112Z,8.00
2019-05-05T16:16:05.357Z,8.10
2019-05-05T16:18:38.064Z,8.20
2019-05-05T16:21:07.938Z,8.10
2019-05-05T16:23:46.648Z,8.20
2019-05-05T16:26:14.856Z,8.10
2019-05-05T16:28:44.572Z,8.20
2019-05-05T16:31:14.503Z,8.10
2019-05-05T16:33:44.114Z,8.10
2019-05-05T16:36:13.790Z,8.00
2019-05-05T16:38:43.603Z,8.00
2019-05-05T16:41:13.608Z,8.00
2019-05-05T16:43:41.871Z,8.00
2019-05-05T16:46:10.106Z,8.00
2019-05-05T16:48:38.296Z,8.00
2019-05-05T16:51:08.128Z,8.00
2019-05-05T16:53:37.127Z,8.10
2019-05-05T16:56:11.111Z,8.10
2019-05-05T16:58:39.303Z,8.10
2019-05-05T17:01:09.140Z,8.20
2019-05-05T17:03:37.336Z,8.10
2019-05-05T17:06:05.532Z,8.20
2019-05-05T17:08:33.904Z,8.40
2019-05-05T17:11:02.099Z,8.40
2019-05-05T17:13:49.860Z,8.40
2019-05-05T17:16:35.693Z,8.40
2019-05-05T17:19:13.811Z,8.40
2019-05-05T17:21:53.586Z,8.40
2019-05-05T17:24:23.756Z,8.30
2019-05-05T17:26:51.815Z,8.30
2019-05-05T17:29:19.998Z,8.30
2019-05-05T17:31:48.191Z,8.10
2019-05-05T17:34:16.385Z,8.10
2019-05-05T17:36:45.259Z,8.00
2019-05-05T17:39:13.666Z,7.90
2019-05-05T17:41:49.482Z,7.90
2019-05-05T17:44:37.389Z,7.80
2019-05-05T17:47:16.076Z,7.80
2019-05-05T17:49:57.392Z,7.70
2019-05-05T17:52:38.743Z,7.60
2019-05-05T17:55:27.234Z,7.60
2019-05-05T17:58:01.554Z,7.50
2019-05-05T18:00:24.622Z,7.50
2019-05-05T18:02:53.476Z,7.50
2019-05-05T18:05:24.800Z,7.50
2019-05-05T18:07:53.560Z,7.40
2019-05-05T18:10:23.992Z,7.30
2019-05-05T18:12:54.092Z,7.40
2019-05-05T18:15:40.220Z,7.40
2019-05-05T18:18:08.413Z,7.40
2019-05-05T18:20:36.609Z,7.30
2019-05-05T18:23:04.804Z,7.30
2019-05-05T18:25:34.698Z,7.40
2019-05-05T18:28:15.694Z,7.40
2019-05-05T18:30:33.455Z,7.40
2019-05-05T18:33:01.711Z,7.30
2019-05-05T18:35:29.937Z,7.30
2019-05-05T18:37:58.166Z,7.30
2019-05-05T18:40:26.386Z,7.20
2019-05-05T18:42:55.696Z,7.20
2019-05-05T18:45:23.876Z,7.10
2019-05-05T18:47:53.793Z,7.10
2019-05-05T18:50:22.072Z,7.00
2019-05-05T18:52:50.263Z,7.00
2019-05-05T18:55:18.464Z,7.00
2019-05-05T18:57:46.694Z,7.10
2019-05-05T19:00:16.529Z,7.10
2019-05-05T19:02:53.576Z,7.10
2019-05-05T19:05:23.780Z,7.10
2019-05-05T19:07:59.455Z,7.00
2019-05-05T19:10:27.648Z,7.10
2019-05-05T19:12:55.867Z,6.90
2019-05-05T19:15:24.446Z,6.90
2019-05-05T19:17:52.862Z,6.70
2019-05-05T19:20:24.195Z,6.60
2019-05-05T19:22:54.406Z,6.60
2019-05-05T19:25:24.176Z,6.50
2019-05-05T19:27:53.653Z,6.40
2019-05-05T19:30:22.490Z,6.40
2019-05-05T19:32:50.710Z,6.60
2019-05-05T19:35:18.904Z,6.50
2019-05-05T19:37:47.130Z,6.50
2019-05-05T19:40:15.325Z,6.40
2019-05-05T19:42:46.004Z,6.50
2019-05-05T19:45:13.469Z,6.40
2019-05-05T19:47:43.715Z,6.40
2019-05-05T19:50:17.313Z,6.10
2019-05-05T19:52:46.685Z,5.90
2019-05-05T19:55:14.927Z,5.90
2019-05-05T19:57:44.588Z,5.90
2019-05-05T20:00:14.590Z,5.90
2019-05-05T20:02:43.828Z,5.90
2019-05-05T20:05:13.762Z,5.90
2019-05-05T20:07:43.838Z,5.80
2019-05-05T20:10:12.132Z,5.90
2019-05-05T20:12:40.329Z,5.90
2019-05-05T20:15:10.198Z,5.80
2019-05-05T20:17:38.764Z,5.80
2019-05-05T20:20:07.303Z,5.80
2019-05-05T20:22:35.559Z,5.90
2019-05-05T20:25:05.800Z,5.80
2019-05-05T20:27:34.417Z,5.80
2019-05-05T20:30:06.172Z,5.70
2019-05-05T20:32:35.304Z,5.70
2019-05-05T20:35:21.339Z,5.60
2019-05-05T20:37:51.163Z,5.30
2019-05-05T20:40:21.005Z,5.10
2019-05-05T20:42:49.231Z,4.90
2019-05-05T20:45:19.074Z,5.00
2019-05-05T20:47:47.302Z,5.00
2019-05-05T20:50:15.505Z,5.10
2019-05-05T20:52:44.235Z,5.10
2019-05-05T20:55:14.106Z,5.20
2019-05-05T20:57:44.341Z,5.20
2019-05-05T21:00:14.514Z,5.20
2019-05-05T21:02:43.597Z,5.10
2019-05-05T21:05:11.913Z,4.90
2019-05-05T21:07:40.115Z,4.80
2019-05-05T21:10:08.324Z,4.70
2019-05-05T21:12:41.937Z,4.70
2019-05-05T21:15:07.108Z,4.80
2019-05-05T21:17:35.808Z,4.80
2019-05-05T21:20:07.342Z,4.90
2019-05-05T21:22:37.179Z,4.90
2019-05-05T21:25:07.957Z,5.00
2019-05-05T21:27:36.231Z,4.90
2019-05-05T21:30:07.174Z,5.00
2019-05-05T21:32:35.368Z,4.80
2019-05-05T21:35:03.940Z,4.70
2019-05-05T21:37:33.989Z,4.60
2019-05-05T21:40:04.467Z,4.60
2019-05-05T21:42:31.985Z,4.50
2019-05-05T21:45:00.185Z,4.40
2019-05-05T21:47:28.433Z,4.40
2019-05-05T21:49:56.616Z,4.40
2019-05-05T21:52:29.278Z,4.40
2019-05-05T21:54:59.149Z,4.40
2019-05-05T21:57:40.808Z,4.40
2019-05-05T22:00:10.712Z,4.30
2019-05-05T22:02:38.916Z,4.40
2019-05-05T22:05:07.125Z,4.50
2019-05-05T22:07:35.325Z,4.60
2019-05-05T22:10:04.584Z,4.60
2019-05-05T22:12:33.407Z,4.70
2019-05-05T22:15:04.338Z,4.70
2019-05-05T22:17:33.632Z,4.60
2019-05-05T22:20:09.956Z,4.60
2019-05-05T22:22:39.831Z,4.60
2019-05-05T22:25:08.024Z,4.60
2019-05-05T22:27:36.228Z,4.60
2019-05-05T22:30:10.039Z,4.60
2019-05-05T22:32:35.746Z,4.70
2019-05-05T22:35:06.069Z,4.70
2019-05-05T22:37:34.478Z,4.60
2019-05-05T22:40:02.753Z,4.60
2019-05-05T22:42:30.955Z,4.70
2019-05-05T22:44:59.248Z,4.70
2019-05-05T22:47:27.464Z,4.70
2019-05-05T22:49:55.690Z,4.80
2019-05-05T22:52:25.491Z,4.80
2019-05-05T22:54:53.765Z,4.70
2019-05-05T22:57:21.972Z,4.60
2019-05-05T22:59:50.173Z,4.50
2019-05-05T23:02:20.013Z,4.50
2019-05-05T23:04:58.979Z,4.60
2019-05-05T23:07:28.862Z,4.60
2019-05-05T23:09:57.057Z,4.70
2019-05-05T23:12:25.256Z,4.60
2019-05-05T23:14:54.510Z,4.60
2019-05-05T23:17:27.451Z,4.70
2019-05-05T23:20:06.329Z,4.70
2019-05-05T23:22:44.019Z,4.80
2019-05-05T23:25:19.076Z,4.70
2019-05-05T23:27:48.046Z,4.70
2019-05-05T23:30:17.343Z,4.60
2019-05-05T23:32:46.486Z,4.60
2019-05-05T23:35:14.719Z,4.70
2019-05-05T23:37:44.840Z,4.70
2019-05-05T23:40:14.823Z,4.60
2019-05-05T23:42:43.017Z,4.50
2019-05-05T23:45:11.216Z,4.50
2019-05-05T23:47:39.416Z,4.50
2019-05-05T23:50:07.615Z,4.50
2019-05-05T23:52:35.820Z,4.50
2019-05-05T23:55:05.551Z,4.50
2019-05-05T23:57:33.748Z,4.50
